createdAt,value
2022-09-28T00:01:22.223Z,13.36
2022-09-28T00:03:52.020Z,13.33
2022-09-28T00:06:24.340Z,13.33
2022-09-28T00:08:52.087Z,13.34
2022-09-28T00:11:21.724Z,13.36
2022-09-28T00:13:56.532Z,13.37
2022-09-28T00:16:28.030Z,13.38
2022-09-28T00:18:55.618Z,13.37
2022-09-28T00:21:30.245Z,13.39
2022-09-28T00:24:12.522Z,13.39
2022-09-28T00:26:52.668Z,13.37
2022-09-28T00:29:26.898Z,13.37
2022-09-28T00:32:10.326Z,13.35
2022-09-28T00:34:45.734Z,13.35
2022-09-28T00:37:14.187Z,13.36
2022-09-28T00:39:41.789Z,13.36
2022-09-28T00:42:21.457Z,13.37
2022-09-28T00:44:53.064Z,13.38
2022-09-28T00:47:23.564Z,13.38
2022-09-28T00:50:11.001Z,13.38
2022-09-28T00:52:54.866Z,13.37
2022-09-28T00:55:37.830Z,13.37
2022-09-28T00:58:09.137Z,13.37
2022-09-28T01:00:36.157Z,13.38
2022-09-28T01:03:04.252Z,13.40
2022-09-28T01:05:31.647Z,13.44
2022-09-28T01:07:58.791Z,13.45
2022-09-28T01:10:27.517Z,13.43
2022-09-28T01:12:55.599Z,13.44
2022-09-28T01:15:28.049Z,13.45
2022-09-28T01:18:22.586Z,13.49
2022-09-28T01:21:01.413Z,13.47
2022-09-28T01:23:54.153Z,13.49
2022-09-28T01:26:50.734Z,13.49
2022-09-28T01:30:14.530Z,13.47
2022-09-28T01:32:50.581Z,13.42
2022-09-28T01:35:31.673Z,13.44
2022-09-28T01:38:19.016Z,13.44
2022-09-28T01:40:47.789Z,13.43
2022-09-28T01:43:24.854Z,13.44
2022-09-28T01:46:00.518Z,13.47
2022-09-28T01:48:37.202Z,13.46
2022-09-28T01:51:18.304Z,13.45
2022-09-28T01:53:55.920Z,13.44
2022-09-28T01:56:37.137Z,13.41
2022-09-28T01:59:16.225Z,13.39
2022-09-28T02:02:12.450Z,13.36
2022-09-28T02:05:04.943Z,13.32
2022-09-28T02:07:54.891Z,13.27
2022-09-28T02:10:30.814Z,13.22
2022-09-28T02:13:09.057Z,13.19
2022-09-28T02:16:04.367Z,13.13
2022-09-28T02:18:31.809Z,13.07
2022-09-28T02:21:23.294Z,13.05
2022-09-28T02:24:02.486Z,13.00
2022-09-28T02:26:39.951Z,12.98
2022-09-28T02:29:06.824Z,12.95
2022-09-28T02:31:34.402Z,12.94
2022-09-28T02:34:01.258Z,12.91
2022-09-28T02:36:29.670Z,12.91
2022-09-28T02:38:58.356Z,12.90
2022-09-28T02:42:03.683Z,12.93
2022-09-28T02:45:06.627Z,12.89
2022-09-28T02:47:56.427Z,12.94
2022-09-28T02:51:00.049Z,12.96
2022-09-28T02:54:22.857Z,13.00
2022-09-28T02:57:19.680Z,12.99
2022-09-28T03:00:07.988Z,13.02
2022-09-28T03:03:09.789Z,13.04
2022-09-28T03:06:14.893Z,13.05
2022-09-28T03:09:09.111Z,13.05
2022-09-28T03:11:46.550Z,13.06
2022-09-28T03:14:14.539Z,13.08
2022-09-28T03:16:45.800Z,13.10
2022-09-28T03:19:14.083Z,13.12
2022-09-28T03:21:41.301Z,13.14
2022-09-28T03:24:11.091Z,13.13
2022-09-28T03:26:39.166Z,13.15
2022-09-28T03:29:06.612Z,13.18
2022-09-28T03:31:33.594Z,13.19
2022-09-28T03:34:00.534Z,13.22
2022-09-28T03:36:27.310Z,13.24
2022-09-28T03:38:56.089Z,13.28
2022-09-28T03:41:25.147Z,13.32
2022-09-28T03:43:51.828Z,13.35
2022-09-28T03:46:18.590Z,13.35
2022-09-28T03:48:45.471Z,13.34
2022-09-28T03:51:12.983Z,13.34
2022-09-28T03:53:40.343Z,13.31
2022-09-28T03:56:15.772Z,13.31
2022-09-28T03:58:43.165Z,13.31
2022-09-28T04:01:16.868Z,13.30
2022-09-28T04:03:44.516Z,13.28
2022-09-28T04:06:11.742Z,13.28
2022-09-28T04:08:38.836Z,13.26
2022-09-28T04:11:05.831Z,13.25
2022-09-28T04:13:32.717Z,13.22
2022-09-28T04:16:01.442Z,13.22
2022-09-28T04:18:28.381Z,13.21
2022-09-28T04:21:12.075Z,13.19
2022-09-28T04:23:40.133Z,13.16
2022-09-28T04:26:16.624Z,13.12
2022-09-28T04:29:06.525Z,13.09
2022-09-28T04:31:44.711Z,13.04
2022-09-28T04:34:13.615Z,13.01
2022-09-28T04:36:41.081Z,12.99
2022-09-28T04:39:07.815Z,12.95
2022-09-28T04:41:34.721Z,12.94
2022-09-28T04:44:01.874Z,12.94
2022-09-28T04:46:28.624Z,12.93
2022-09-28T04:48:55.493Z,12.92
2022-09-28T04:51:22.263Z,12.90
2022-09-28T04:53:49.194Z,12.88
2022-09-28T04:56:18.951Z,12.88
2022-09-28T04:58:51.807Z,12.84
2022-09-28T05:01:20.963Z,12.81
2022-09-28T05:03:47.752Z,12.81
2022-09-28T05:06:15.745Z,12.82
2022-09-28T05:08:43.536Z,12.82
2022-09-28T05:11:14.314Z,12.83
2022-09-28T05:13:45.761Z,12.83
2022-09-28T05:16:16.063Z,12.83
2022-09-28T05:18:43.556Z,12.84
2022-09-28T05:21:15.559Z,12.85
2022-09-28T05:23:47.045Z,12.87
2022-09-28T05:26:14.718Z,12.88
2022-09-28T05:28:41.554Z,12.88
2022-09-28T05:31:08.844Z,12.90
2022-09-28T05:33:36.287Z,12.89
2022-09-28T05:36:04.056Z,12.88
2022-09-28T05:38:31.662Z,12.89
2022-09-28T05:40:59.692Z,12.90
2022-09-28T05:43:27.977Z,12.89
2022-09-28T05:45:55.968Z,12.87
2022-09-28T05:48:23.266Z,12.85
2022-09-28T05:50:54.031Z,12.81
2022-09-28T05:53:21.480Z,12.80
2022-09-28T05:55:48.807Z,12.79
2022-09-28T05:58:16.835Z,12.80
2022-09-28T06:00:43.835Z,12.82
2022-09-28T06:03:13.875Z,12.85
2022-09-28T06:05:41.096Z,12.87
2022-09-28T06:08:12.794Z,12.92
2022-09-28T06:10:40.834Z,12.93
2022-09-28T06:13:10.528Z,12.97
2022-09-28T06:15:39.009Z,13.01
2022-09-28T06:18:14.205Z,13.05
2022-09-28T06:20:41.685Z,13.08
2022-09-28T06:23:13.531Z,13.12
2022-09-28T06:25:41.191Z,13.15
2022-09-28T06:28:13.076Z,13.18
2022-09-28T06:30:42.146Z,13.23
2022-09-28T06:33:13.335Z,13.30
2022-09-28T06:35:40.759Z,13.37
2022-09-28T06:38:08.327Z,13.45
2022-09-28T06:40:36.350Z,13.51
2022-09-28T06:43:11.259Z,13.58
2022-09-28T06:45:42.817Z,13.64
2022-09-28T06:48:11.730Z,13.70
2022-09-28T06:50:41.400Z,13.80
2022-09-28T06:53:12.213Z,13.89
2022-09-28T06:55:46.065Z,13.98
2022-09-28T06:58:17.198Z,14.07
2022-09-28T07:00:44.500Z,14.15
2022-09-28T07:03:15.391Z,14.26
2022-09-28T07:05:53.773Z,14.33
2022-09-28T07:08:25.919Z,14.43
2022-09-28T07:10:56.075Z,14.53
2022-09-28T07:16:13.369Z,14.71
2022-09-28T07:18:40.434Z,14.79
2022-09-28T07:21:08.806Z,14.90
2022-09-28T07:23:49.916Z,15.01
2022-09-28T07:26:22.794Z,15.15
2022-09-28T07:28:50.127Z,15.29
2022-09-28T07:31:16.886Z,15.38
2022-09-28T07:33:43.682Z,15.45
2022-09-28T07:36:10.660Z,15.50
2022-09-28T07:38:38.206Z,15.52
2022-09-28T07:41:16.789Z,15.57
2022-09-28T07:43:43.786Z,15.56
2022-09-28T07:46:13.424Z,15.57
2022-09-28T07:48:42.696Z,15.60
2022-09-28T07:51:10.227Z,15.62
2022-09-28T07:53:38.419Z,15.64
2022-09-28T07:56:09.405Z,15.67
2022-09-28T07:58:38.733Z,15.69
2022-09-28T08:01:10.408Z,15.74
2022-09-28T08:03:38.796Z,15.78
2022-09-28T08:06:11.185Z,15.82
2022-09-28T08:08:44.670Z,15.89
2022-09-28T08:11:15.321Z,15.96
2022-09-28T08:13:43.851Z,16.06
2022-09-28T08:16:11.229Z,16.18
2022-09-28T08:18:38.129Z,16.33
2022-09-28T08:21:24.781Z,16.49
2022-09-28T08:23:52.852Z,16.70
2022-09-28T08:26:19.806Z,16.91
2022-09-28T08:28:47.768Z,17.12
2022-09-28T08:31:14.861Z,17.32
2022-09-28T08:33:44.523Z,17.49
2022-09-28T08:36:11.460Z,17.64
2022-09-28T08:38:38.925Z,17.83
2022-09-28T08:41:17.461Z,18.01
2022-09-28T08:43:57.438Z,18.25
2022-09-28T08:46:32.175Z,18.43
2022-09-28T08:49:32.582Z,18.53
2022-09-28T08:52:07.774Z,18.54
2022-09-28T08:54:54.528Z,18.54
2022-09-28T08:57:33.384Z,18.52
2022-09-28T09:00:09.555Z,18.51
2022-09-28T09:02:39.790Z,18.49
2022-09-28T09:05:14.736Z,18.51
2022-09-28T09:08:00.781Z,18.55
2022-09-28T09:11:02.795Z,18.59
2022-09-28T09:13:38.430Z,18.66
2022-09-28T09:16:37.067Z,18.78
2022-09-28T09:19:42.303Z,18.86
2022-09-28T09:22:40.625Z,18.95
2022-09-28T09:25:41.389Z,19.08
2022-09-28T09:28:20.680Z,19.21
2022-09-28T09:31:37.144Z,19.37
2022-09-28T09:34:32.164Z,19.45
2022-09-28T09:37:13.899Z,19.56
2022-09-28T09:40:07.355Z,19.69
2022-09-28T09:43:13.819Z,19.88
2022-09-28T09:45:58.779Z,20.20
2022-09-28T09:48:52.880Z,20.83
2022-09-28T09:51:38.223Z,21.84
2022-09-28T09:54:42.632Z,23.14
2022-09-28T09:57:30.002Z,24.27
2022-09-28T10:00:01.892Z,25.09
2022-09-28T10:02:40.293Z,25.77
2022-09-28T10:05:12.847Z,26.27
2022-09-28T10:07:54.728Z,26.63
2022-09-28T10:10:35.390Z,26.87
2022-09-28T10:13:03.410Z,27.01
2022-09-28T10:15:35.287Z,27.08
2022-09-28T10:18:11.099Z,27.05
2022-09-28T10:20:42.086Z,26.92
2022-09-28T10:23:23.545Z,26.80
2022-09-28T10:25:56.769Z,26.77
2022-09-28T10:28:45.170Z,26.80
2022-09-28T10:31:36.905Z,26.94
2022-09-28T10:34:05.909Z,27.07
2022-09-28T10:36:43.097Z,27.22
2022-09-28T10:39:37.513Z,27.32
2022-09-28T10:42:12.176Z,27.48
2022-09-28T10:45:02.859Z,27.74
2022-09-28T10:47:32.743Z,28.10
2022-09-28T10:50:00.898Z,28.41
2022-09-28T10:52:44.889Z,28.62
2022-09-28T10:55:33.279Z,28.61
2022-09-28T10:58:00.791Z,28.58
2022-09-28T11:00:41.872Z,28.47
2022-09-28T11:03:28.063Z,28.28
2022-09-28T11:06:07.836Z,28.06
2022-09-28T11:08:38.371Z,27.83
2022-09-28T11:11:11.267Z,27.55
2022-09-28T11:13:42.696Z,27.31
2022-09-28T11:16:24.417Z,27.00
2022-09-28T11:18:51.961Z,26.73
2022-09-28T11:21:28.351Z,26.41
2022-09-28T11:24:02.088Z,26.12
2022-09-28T11:26:41.194Z,25.77
2022-09-28T11:29:38.167Z,25.38
2022-09-28T11:32:06.217Z,25.09
2022-09-28T11:34:58.747Z,24.82
2022-09-28T11:37:45.541Z,24.66
2022-09-28T11:40:34.039Z,24.67
2022-09-28T11:43:31.944Z,24.69
2022-09-28T11:46:27.847Z,24.69
2022-09-28T11:49:03.909Z,24.66
2022-09-28T11:51:40.983Z,24.59
2022-09-28T11:54:50.585Z,24.46
2022-09-28T11:57:26.619Z,24.35
2022-09-28T12:00:10.447Z,24.24
2022-09-28T12:02:46.832Z,24.05
2022-09-28T12:05:29.949Z,23.89
2022-09-28T12:08:12.714Z,23.75
2022-09-28T12:10:57.705Z,23.60
2022-09-28T12:13:33.165Z,23.45
2022-09-28T12:17:05.020Z,23.26
2022-09-28T12:19:55.368Z,22.95
2022-09-28T12:22:34.809Z,22.75
2022-09-28T12:25:04.996Z,22.58
2022-09-28T12:27:51.271Z,22.39
2022-09-28T12:30:21.602Z,22.27
2022-09-28T12:33:13.333Z,22.17
2022-09-28T12:36:03.933Z,22.07
2022-09-28T12:39:21.849Z,21.96
2022-09-28T12:42:31.567Z,21.83
2022-09-28T12:45:38.824Z,21.77
2022-09-28T12:49:36.749Z,21.68
2022-09-28T12:51:51.423Z,21.63
2022-09-28T12:54:55.128Z,21.57
2022-09-28T12:57:42.625Z,21.54
2022-09-28T13:00:22.882Z,21.53
2022-09-28T13:02:55.690Z,21.53
2022-09-28T13:05:56.170Z,21.49
2022-09-28T13:08:48.212Z,21.45
2022-09-28T13:11:43.951Z,21.39
2022-09-28T13:15:09.867Z,21.30
2022-09-28T13:17:51.824Z,21.22
2022-09-28T13:20:39.526Z,21.16
2022-09-28T13:23:25.237Z,21.11
2022-09-28T13:26:13.931Z,21.06
2022-09-28T13:28:43.450Z,21.04
2022-09-28T13:31:15.786Z,21.00
2022-09-28T13:33:47.013Z,20.97
2022-09-28T13:36:28.719Z,20.91
2022-09-28T13:39:00.220Z,20.88
2022-09-28T13:41:40.323Z,20.86
2022-09-28T13:44:13.194Z,20.87
2022-09-28T13:47:03.956Z,20.89
2022-09-28T13:50:17.218Z,20.94
2022-09-28T13:53:31.393Z,21.02
2022-09-28T13:56:24.453Z,21.13
2022-09-28T13:59:03.493Z,21.28
2022-09-28T14:01:39.741Z,21.40
2022-09-28T14:05:02.594Z,21.50
2022-09-28T14:07:35.539Z,21.58
2022-09-28T14:10:37.538Z,21.62
2022-09-28T14:13:06.609Z,21.65
2022-09-28T14:15:35.305Z,21.68
2022-09-28T14:18:13.861Z,21.69
2022-09-28T14:21:03.673Z,21.68
2022-09-28T14:24:22.510Z,21.65
2022-09-28T14:27:34.186Z,21.57
2022-09-28T14:30:20.811Z,21.50
2022-09-28T14:32:58.347Z,21.46
2022-09-28T14:35:40.046Z,21.43
2022-09-28T14:38:44.189Z,21.40
2022-09-28T14:41:17.945Z,21.40
2022-09-28T14:43:44.589Z,21.40
2022-09-28T14:46:11.416Z,21.40
2022-09-28T14:49:03.376Z,21.35
2022-09-28T14:51:30.105Z,21.30
2022-09-28T14:54:04.732Z,21.19
2022-09-28T14:57:08.168Z,21.00
2022-09-28T14:59:43.497Z,20.78
2022-09-28T15:02:31.877Z,20.54
2022-09-28T15:05:27.845Z,20.32
2022-09-28T15:07:56.125Z,20.08
2022-09-28T15:10:35.439Z,19.89
2022-09-28T15:13:16.058Z,20.19
2022-09-28T15:15:50.416Z,19.85
2022-09-28T15:19:08.210Z,19.54
2022-09-28T15:21:39.781Z,19.28
2022-09-28T15:24:31.540Z,19.08
2022-09-28T15:27:00.940Z,18.86
2022-09-28T15:29:33.329Z,18.70
2022-09-28T15:32:01.286Z,18.56
2022-09-28T15:34:51.378Z,18.47
2022-09-28T15:37:32.925Z,18.34
2022-09-28T15:40:01.234Z,18.27
2022-09-28T15:42:28.244Z,18.24
2022-09-28T15:45:07.698Z,18.16
2022-09-28T15:47:35.342Z,18.09
2022-09-28T15:50:27.681Z,18.02
2022-09-28T15:53:01.829Z,17.94
2022-09-28T15:55:39.067Z,17.87
2022-09-28T15:58:21.419Z,17.81
2022-09-28T16:01:12.070Z,17.73
2022-09-28T16:03:38.861Z,17.68
2022-09-28T16:06:09.351Z,17.65
2022-09-28T16:08:36.042Z,17.64
2022-09-28T16:11:38.162Z,17.67
2022-09-28T16:14:18.613Z,17.66
2022-09-28T16:16:46.988Z,17.70
2022-09-28T16:19:29.491Z,17.76
2022-09-28T16:21:59.491Z,17.81
2022-09-28T16:24:37.082Z,17.85
2022-09-28T16:27:05.700Z,17.89
2022-09-28T16:29:42.041Z,17.91
2022-09-28T16:32:26.893Z,17.93
2022-09-28T16:35:27.793Z,17.90
2022-09-28T16:38:05.491Z,17.87
2022-09-28T16:40:33.459Z,17.85
2022-09-28T16:43:05.635Z,17.81
2022-09-28T16:45:35.065Z,17.76
2022-09-28T16:48:03.043Z,17.70
2022-09-28T16:50:29.911Z,17.63
2022-09-28T16:53:31.897Z,17.55
2022-09-28T16:55:59.795Z,17.45
2022-09-28T16:58:27.689Z,17.38
2022-09-28T17:00:55.478Z,17.32
2022-09-28T17:03:23.506Z,17.27
2022-09-28T17:05:51.777Z,17.22
2022-09-28T17:08:22.726Z,17.17
2022-09-28T17:11:14.888Z,17.10
2022-09-28T17:13:47.329Z,17.04
2022-09-28T17:16:36.695Z,17.01
2022-09-28T17:19:23.462Z,16.94
2022-09-28T17:21:52.201Z,16.91
2022-09-28T17:24:20.279Z,16.86
2022-09-28T17:26:50.016Z,16.82
2022-09-28T17:29:17.487Z,16.81
2022-09-28T17:31:46.441Z,16.76
2022-09-28T17:34:16.146Z,16.72
2022-09-28T17:36:43.861Z,16.70
2022-09-28T17:39:15.272Z,16.66
2022-09-28T17:41:42.276Z,16.61
2022-09-28T17:44:09.609Z,16.59
2022-09-28T17:46:39.796Z,16.55
2022-09-28T17:49:11.470Z,16.51
2022-09-28T17:51:38.436Z,16.48
2022-09-28T17:54:07.956Z,16.46
2022-09-28T17:56:36.201Z,16.42
2022-09-28T17:59:10.035Z,16.40
2022-09-28T18:01:39.753Z,16.34
2022-09-28T18:04:09.322Z,16.31
2022-09-28T18:06:39.239Z,16.27
2022-09-28T18:09:06.156Z,16.23
2022-09-28T18:11:34.219Z,16.21
2022-09-28T18:14:01.277Z,16.15
2022-09-28T18:16:29.064Z,16.11
2022-09-28T18:18:56.172Z,16.07
2022-09-28T18:21:23.017Z,16.06
2022-09-28T18:23:49.774Z,16.04
2022-09-28T18:26:19.476Z,16.03
2022-09-28T18:28:47.045Z,16.01
2022-09-28T18:31:15.699Z,16.01
2022-09-28T18:33:43.277Z,15.98
2022-09-28T18:36:10.142Z,15.98
2022-09-28T18:38:38.275Z,15.96
2022-09-28T18:41:13.386Z,15.94
2022-09-28T18:43:40.358Z,15.91
2022-09-28T18:46:09.514Z,15.89
2022-09-28T18:48:38.337Z,15.86
2022-09-28T18:51:09.602Z,15.86
2022-09-28T18:53:37.343Z,15.85
2022-09-28T18:56:13.381Z,15.81
2022-09-28T18:58:42.573Z,15.78
2022-09-28T19:01:33.857Z,15.76
2022-09-28T19:04:03.505Z,15.73
2022-09-28T19:06:32.387Z,15.71
2022-09-28T19:09:03.685Z,15.72
2022-09-28T19:11:30.411Z,15.70
2022-09-28T19:13:57.249Z,15.70
2022-09-28T19:16:30.475Z,15.69
2022-09-28T19:18:58.827Z,15.66
2022-09-28T19:21:26.672Z,15.59
2022-09-28T19:23:55.235Z,15.48
2022-09-28T19:26:26.841Z,15.32
2022-09-28T19:28:55.695Z,15.15
2022-09-28T19:31:23.356Z,15.04
2022-09-28T19:33:50.762Z,14.95
2022-09-28T19:36:23.930Z,14.90
2022-09-28T19:38:52.893Z,14.85
2022-09-28T19:41:44.188Z,14.84
2022-09-28T19:44:15.545Z,14.80
2022-09-28T19:46:43.534Z,14.80
2022-09-28T19:49:14.647Z,14.79
2022-09-28T19:51:56.555Z,14.77
2022-09-28T19:54:35.513Z,14.75
2022-09-28T19:57:08.964Z,14.75
2022-09-28T19:59:37.307Z,14.75
2022-09-28T20:02:07.519Z,14.75
2022-09-28T20:04:34.401Z,14.76
2022-09-28T20:07:01.672Z,14.75
2022-09-28T20:09:28.713Z,14.76
2022-09-28T20:11:55.464Z,14.74
2022-09-28T20:14:24.485Z,14.72
2022-09-28T20:16:53.243Z,14.73
2022-09-28T20:19:21.684Z,14.72
2022-09-28T20:21:49.753Z,14.69
2022-09-28T20:24:17.336Z,14.70
2022-09-28T20:26:46.162Z,14.69
2022-09-28T20:29:13.397Z,14.67
2022-09-28T20:31:40.419Z,14.66
2022-09-28T20:34:07.758Z,14.64
2022-09-28T20:36:35.040Z,14.63
2022-09-28T20:39:04.149Z,14.59
2022-09-28T20:41:36.414Z,14.57
2022-09-28T20:44:06.363Z,14.54
2022-09-28T20:46:35.089Z,14.50
2022-09-28T20:49:02.323Z,14.48
2022-09-28T20:51:29.080Z,14.45
2022-09-28T20:53:57.944Z,14.40
2022-09-28T20:56:37.590Z,14.37
2022-09-28T20:59:08.321Z,14.33
2022-09-28T21:01:35.248Z,14.30
2022-09-28T21:04:04.643Z,14.29
2022-09-28T21:06:39.970Z,14.25
2022-09-28T21:09:09.194Z,14.22
2022-09-28T21:11:36.966Z,14.20
2022-09-28T21:14:06.654Z,14.18
2022-09-28T21:16:35.102Z,14.13
2022-09-28T21:19:02.712Z,14.08
2022-09-28T21:21:30.071Z,14.02
2022-09-28T21:23:58.326Z,13.98
2022-09-28T21:26:28.186Z,13.92
2022-09-28T21:28:57.920Z,13.88
2022-09-28T21:31:29.648Z,13.82
2022-09-28T21:33:57.632Z,13.76
2022-09-28T21:36:25.469Z,13.73
2022-09-28T21:38:54.150Z,13.69
2022-09-28T21:41:20.898Z,13.65
2022-09-28T21:43:47.633Z,13.61
2022-09-28T21:46:14.412Z,13.57
2022-09-28T21:48:41.620Z,13.51
2022-09-28T21:51:13.782Z,13.48
2022-09-28T21:53:40.771Z,13.44
2022-09-28T21:56:10.891Z,13.40
2022-09-28T21:58:38.260Z,13.36
2022-09-28T22:01:13.073Z,13.31
2022-09-28T22:03:41.382Z,13.28
2022-09-28T22:06:09.519Z,13.23
2022-09-28T22:08:37.760Z,13.19
2022-09-28T22:11:12.214Z,13.14
2022-09-28T22:13:46.884Z,13.09
2022-09-28T22:16:16.913Z,13.04
2022-09-28T22:18:44.463Z,13.00
2022-09-28T22:21:17.878Z,12.95
2022-09-28T22:23:45.577Z,12.91
2022-09-28T22:26:25.178Z,12.87
2022-09-28T22:28:54.480Z,12.82
2022-09-28T22:31:25.233Z,12.78
2022-09-28T22:33:52.535Z,12.75
2022-09-28T22:36:19.914Z,12.70
2022-09-28T22:38:47.947Z,12.67
2022-09-28T22:41:17.557Z,12.64
2022-09-28T22:43:44.553Z,12.62
2022-09-28T22:46:33.586Z,12.60
2022-09-28T22:49:00.957Z,12.55
2022-09-28T22:51:29.782Z,12.52
2022-09-28T22:53:57.219Z,12.50
2022-09-28T22:56:25.170Z,12.47
2022-09-28T22:58:52.013Z,12.46
2022-09-28T23:01:25.963Z,12.42
2022-09-28T23:03:54.981Z,12.38
2022-09-28T23:06:26.004Z,12.35
2022-09-28T23:08:53.718Z,12.32
2022-09-28T23:11:20.877Z,12.28
2022-09-28T23:13:56.405Z,12.24
2022-09-28T23:16:25.767Z,12.21
2022-09-28T23:18:55.051Z,12.16
2022-09-28T23:21:25.324Z,12.15
2022-09-28T23:23:56.142Z,12.11
2022-09-28T23:26:27.056Z,12.07
2022-09-28T23:28:55.297Z,12.03
2022-09-28T23:31:30.639Z,12.00
2022-09-28T23:34:04.902Z,11.97
2022-09-28T23:36:32.782Z,11.95
2022-09-28T23:39:00.112Z,11.92
2022-09-28T23:41:26.970Z,11.90
2022-09-28T23:43:53.710Z,11.89
2022-09-28T23:46:21.328Z,11.88
2022-09-28T23:48:49.490Z,11.86
2022-09-28T23:51:17.046Z,11.84
2022-09-28T23:53:43.906Z,11.83
2022-09-28T23:56:11.181Z,11.83
2022-09-28T23:58:38.032Z,11.82
